Aviation Digital Data Service (ADDS)

Output produced by METARs form (1250 UTC 22 March 2019)
found at http://www.aviationweather.gov/metar/data/
 
METAR text: EPWA 221230Z 34011KT 9999 BKN043 14/05 Q1031 NOSIG
Conditions at: EPWA (WARSAW/OKECIE , PL) observed 1230 UTC 22 March 2019
Temperature: 14.0°C (57°F)
Dewpoint: 5.0°C (41°F) [RH = 55%]
Pressure (altimeter): 30.44 inches Hg (1031.0 mb)
Winds: from the NNW (340 degrees) at 13 MPH (11 knots; 5.7 m/s)
Visibility: 6 or more miles (10+ km)
Ceiling: 4300 feet AGL
Clouds: broken clouds at 4300 feet AGL
Weather: no significant weather observed at this time

METAR text: EPWA 221200Z 33011KT 310V010 9999 BKN036 13/06 Q1031 NOSIG
Conditions at: EPWA (WARSAW/OKECIE , PL) observed 1200 UTC 22 March 2019
Temperature: 13.0°C (55°F)
Dewpoint: 6.0°C (43°F) [RH = 62%]
Pressure (altimeter): 30.44 inches Hg (1031.0 mb)
Winds: from the NNW (330 degrees) at 13 MPH (11 knots; 5.7 m/s)
Visibility: 6 or more miles (10+ km)
Ceiling: 3600 feet AGL
Clouds: broken clouds at 3600 feet AGL
Weather: no significant weather observed at this time

METAR text: EPWA 221130Z 36013KT 9999 BKN036 13/06 Q1031 NOSIG
Conditions at: EPWA (WARSAW/OKECIE , PL) observed 1130 UTC 22 March 2019
Temperature: 13.0°C (55°F)
Dewpoint: 6.0°C (43°F) [RH = 62%]
Pressure (altimeter): 30.44 inches Hg (1031.0 mb)
Winds: from the N (360 degrees) at 15 MPH (13 knots; 6.7 m/s)
Visibility: 6 or more miles (10+ km)
Ceiling: 3600 feet AGL
Clouds: broken clouds at 3600 feet AGL
Weather: no significant weather observed at this time

METAR text: EPWA 221100Z 32011KT 9999 BKN030 13/06 Q1031 NOSIG
Conditions at: EPWA (WARSAW/OKECIE , PL) observed 1100 UTC 22 March 2019
Temperature: 13.0°C (55°F)
Dewpoint: 6.0°C (43°F) [RH = 62%]
Pressure (altimeter): 30.44 inches Hg (1031.0 mb)
Winds: from the NW (320 degrees) at 13 MPH (11 knots; 5.7 m/s)
Visibility: 6 or more miles (10+ km)
Ceiling: 3000 feet AGL
Clouds: broken clouds at 3000 feet AGL
Weather: no significant weather observed at this time

METAR text: EPWA 221030Z 34010KT 9999 BKN026 13/06 Q1031 NOSIG
Conditions at: EPWA (WARSAW/OKECIE , PL) observed 1030 UTC 22 March 2019
Temperature: 13.0°C (55°F)
Dewpoint: 6.0°C (43°F) [RH = 62%]
Pressure (altimeter): 30.44 inches Hg (1031.0 mb)
Winds: from the NNW (340 degrees) at 12 MPH (10 knots; 5.1 m/s)
Visibility: 6 or more miles (10+ km)
Ceiling: 2600 feet AGL
Clouds: broken clouds at 2600 feet AGL
Weather: no significant weather observed at this time

METAR text: EPWA 221000Z 31009KT 9999 BKN023 14/08 Q1031 NOSIG
Conditions at: EPWA (WARSAW/OKECIE , PL) observed 1000 UTC 22 March 2019
Temperature: 14.0°C (57°F)
Dewpoint: 8.0°C (46°F) [RH = 67%]
Pressure (altimeter): 30.44 inches Hg (1031.0 mb)
Winds: from the NW (310 degrees) at 10 MPH (9 knots; 4.6 m/s)
Visibility: 6 or more miles (10+ km)
Ceiling: 2300 feet AGL
Clouds: broken clouds at 2300 feet AGL
Weather: no significant weather observed at this time

METAR text: EPWA 220930Z 32009KT 280V350 9999 FEW020 BKN030 12/07 Q1031 NOSIG
Conditions at: EPWA (WARSAW/OKECIE , PL) observed 0930 UTC 22 March 2019
Temperature: 12.0°C (54°F)
Dewpoint: 7.0°C (45°F) [RH = 71%]
Pressure (altimeter): 30.44 inches Hg (1031.0 mb)
Winds: from the NW (320 degrees) at 10 MPH (9 knots; 4.6 m/s)
Visibility: 6 or more miles (10+ km)
Ceiling: 3000 feet AGL
Clouds: few clouds at 2000 feet AGL
broken clouds at 3000 feet AGL
Weather: no significant weather observed at this time

METAR text: EPWA 220900Z 31008KT 9999 FEW014 BKN024 12/07 Q1031 NOSIG
Conditions at: EPWA (WARSAW/OKECIE , PL) observed 0900 UTC 22 March 2019
Temperature: 12.0°C (54°F)
Dewpoint: 7.0°C (45°F) [RH = 71%]
Pressure (altimeter): 30.44 inches Hg (1031.0 mb)
Winds: from the NW (310 degrees) at 9 MPH (8 knots; 4.1 m/s)
Visibility: 6 or more miles (10+ km)
Ceiling: 2400 feet AGL
Clouds: few clouds at 1400 feet AGL
broken clouds at 2400 feet AGL
Weather: no significant weather observed at this time

METAR text: EPWA 220830Z 31009KT 9999 FEW010 BKN026 10/08 Q1031 NOSIG
Conditions at: EPWA (WARSAW/OKECIE , PL) observed 0830 UTC 22 March 2019
Temperature: 10.0°C (50°F)
Dewpoint: 8.0°C (46°F) [RH = 87%]
Pressure (altimeter): 30.44 inches Hg (1031.0 mb)
Winds: from the NW (310 degrees) at 10 MPH (9 knots; 4.6 m/s)
Visibility: 6 or more miles (10+ km)
Ceiling: 2600 feet AGL
Clouds: few clouds at 1000 feet AGL
broken clouds at 2600 feet AGL
Weather: no significant weather observed at this time

METAR text: EPWA 220800Z 31007KT 8000 SCT007 BKN026 10/09 Q1031 TEMPO BKN007
Conditions at: EPWA (WARSAW/OKECIE , PL) observed 0800 UTC 22 March 2019
Temperature: 10.0°C (50°F)
Dewpoint: 9.0°C (48°F) [RH = 93%]
Pressure (altimeter): 30.44 inches Hg (1031.0 mb)
Winds: from the NW (310 degrees) at 8 MPH (7 knots; 3.6 m/s)
Visibility: 5 miles ( 8 km)
Ceiling: 2600 feet AGL
Clouds: scattered clouds at 700 feet AGL
broken clouds at 2600 feet AGL
Weather: no significant weather observed at this time

METAR text: EPWA 220730Z 28006KT 5000 -DZ BR OVC007 10/09 Q1031 TEMPO BKN015
Conditions at: EPWA (WARSAW/OKECIE , PL) observed 0730 UTC 22 March 2019
Temperature: 10.0°C (50°F)
Dewpoint: 9.0°C (48°F) [RH = 93%]
Pressure (altimeter): 30.44 inches Hg (1031.0 mb)
Winds: from the W (280 degrees) at 7 MPH (6 knots; 3.1 m/s)
Visibility: 3 miles ( 5 km)
Ceiling: 700 feet AGL
Clouds: overcast cloud deck at 700 feet AGL
Weather: -DZ BR  (light drizzle, mist)

METAR text: EPWA 220700Z 29006KT 270V330 5000 BR OVC006 09/08 Q1030 TEMPO OVC010
Conditions at: EPWA (WARSAW/OKECIE , PL) observed 0700 UTC 22 March 2019
Temperature: 9.0°C (48°F)
Dewpoint: 8.0°C (46°F) [RH = 93%]
Pressure (altimeter): 30.41 inches Hg (1030.0 mb)
Winds: from the WNW (290 degrees) at 7 MPH (6 knots; 3.1 m/s)
Visibility: 3 miles ( 5 km)
Ceiling: 600 feet AGL
Clouds: overcast cloud deck at 600 feet AGL
Weather: BR  (mist)

METAR text: EPWA 220630Z 29007KT 250V310 4400 BR OVC005 09/08 Q1030 NOSIG
Conditions at: EPWA (WARSAW/OKECIE , PL) observed 0630 UTC 22 March 2019
Temperature: 9.0°C (48°F)
Dewpoint: 8.0°C (46°F) [RH = 93%]
Pressure (altimeter): 30.41 inches Hg (1030.0 mb)
Winds: from the WNW (290 degrees) at 8 MPH (7 knots; 3.6 m/s)
Visibility: 2.73 miles (4.39 km)
Ceiling: 500 feet AGL
Clouds: overcast cloud deck at 500 feet AGL
Weather: BR  (mist)

METAR text: EPWA 220600Z 29007KT 3300 -DZ BR OVC006 09/08 Q1030 TEMPO BKN004
Conditions at: EPWA (WARSAW/OKECIE , PL) observed 0600 UTC 22 March 2019
Temperature: 9.0°C (48°F)
Dewpoint: 8.0°C (46°F) [RH = 93%]
Pressure (altimeter): 30.41 inches Hg (1030.0 mb)
Winds: from the WNW (290 degrees) at 8 MPH (7 knots; 3.6 m/s)
Visibility: 2.05 miles (3.30 km)
Ceiling: 600 feet AGL
Clouds: overcast cloud deck at 600 feet AGL
Weather: -DZ BR  (light drizzle, mist)

METAR text: EPWA 220530Z 29008KT 3100 -RA BR SCT007 BKN009 09/08 Q1030 TEMPO 2500
Conditions at: EPWA (WARSAW/OKECIE , PL) observed 0530 UTC 22 March 2019
Temperature: 9.0°C (48°F)
Dewpoint: 8.0°C (46°F) [RH = 93%]
Pressure (altimeter): 30.41 inches Hg (1030.0 mb)
Winds: from the WNW (290 degrees) at 9 MPH (8 knots; 4.1 m/s)
Visibility: 1.93 miles (3.11 km)
Ceiling: 900 feet AGL
Clouds: scattered clouds at 700 feet AGL
broken clouds at 900 feet AGL
Weather: -RA BR  (light rain, mist)

METAR text: EPWA 220500Z 29008KT 6000 OVC025 09/07 Q1030 BECMG BKN012
Conditions at: EPWA (WARSAW/OKECIE , PL) observed 0500 UTC 22 March 2019
Temperature: 9.0°C (48°F)
Dewpoint: 7.0°C (45°F) [RH = 87%]
Pressure (altimeter): 30.41 inches Hg (1030.0 mb)
Winds: from the WNW (290 degrees) at 9 MPH (8 knots; 4.1 m/s)
Visibility: 4 miles ( 6 km)
Ceiling: 2500 feet AGL
Clouds: overcast cloud deck at 2500 feet AGL
Weather: no significant weather observed at this time

METAR text: EPWA 220430Z 28008KT 250V320 7000 FEW009 BKN025 08/07 Q1029 BECMG BKN012
Conditions at: EPWA (WARSAW/OKECIE , PL) observed 0430 UTC 22 March 2019
Temperature: 8.0°C (46°F)
Dewpoint: 7.0°C (45°F) [RH = 93%]
Pressure (altimeter): 30.38 inches Hg (1029.0 mb)
Winds: from the W (280 degrees) at 9 MPH (8 knots; 4.1 m/s)
Visibility: 4 miles ( 7 km)
Ceiling: 2500 feet AGL
Clouds: few clouds at 900 feet AGL
broken clouds at 2500 feet AGL
Weather: no significant weather observed at this time

METAR text: EPWA 220400Z 29008KT 8000 SCT010 BKN017 08/07 Q1029 BECMG BKN012
Conditions at: EPWA (WARSAW/OKECIE , PL) observed 0400 UTC 22 March 2019
Temperature: 8.0°C (46°F)
Dewpoint: 7.0°C (45°F) [RH = 93%]
Pressure (altimeter): 30.38 inches Hg (1029.0 mb)
Winds: from the WNW (290 degrees) at 9 MPH (8 knots; 4.1 m/s)
Visibility: 5 miles ( 8 km)
Ceiling: 1700 feet AGL
Clouds: scattered clouds at 1000 feet AGL
broken clouds at 1700 feet AGL
Weather: no significant weather observed at this time

METAR text: EPWA 220330Z 27006KT 240V300 9999 BKN025 08/07 Q1028 NOSIG
Conditions at: EPWA (WARSAW/OKECIE , PL) observed 0330 UTC 22 March 2019
Temperature: 8.0°C (46°F)
Dewpoint: 7.0°C (45°F) [RH = 93%]
Pressure (altimeter): 30.35 inches Hg (1028.0 mb)
Winds: from the W (270 degrees) at 7 MPH (6 knots; 3.1 m/s)
Visibility: 6 or more miles (10+ km)
Ceiling: 2500 feet AGL
Clouds: broken clouds at 2500 feet AGL
Weather: no significant weather observed at this time

METAR text: EPWA 220300Z 27007KT 230V300 9999 BKN047 08/07 Q1028 NOSIG
Conditions at: EPWA (WARSAW/OKECIE , PL) observed 0300 UTC 22 March 2019
Temperature: 8.0°C (46°F)
Dewpoint: 7.0°C (45°F) [RH = 93%]
Pressure (altimeter): 30.35 inches Hg (1028.0 mb)
Winds: from the W (270 degrees) at 8 MPH (7 knots; 3.6 m/s)
Visibility: 6 or more miles (10+ km)
Ceiling: 4700 feet AGL
Clouds: broken clouds at 4700 feet AGL
Weather: no significant weather observed at this time

METAR text: EPWA 220230Z 28007KT 9999 SCT020 09/07 Q1029 NOSIG
Conditions at: EPWA (WARSAW/OKECIE , PL) observed 0230 UTC 22 March 2019
Temperature: 9.0°C (48°F)
Dewpoint: 7.0°C (45°F) [RH = 87%]
Pressure (altimeter): 30.38 inches Hg (1029.0 mb)
Winds: from the W (280 degrees) at 8 MPH (7 knots; 3.6 m/s)
Visibility: 6 or more miles (10+ km)
Ceiling: at least 12,000 feet AGL
Clouds: scattered clouds at 2000 feet AGL
Weather: no significant weather observed at this time

METAR text: EPWA 220200Z 28007KT 250V310 9999 FEW019 BKN045 09/07 Q1029 NOSIG
Conditions at: EPWA (WARSAW/OKECIE , PL) observed 0200 UTC 22 March 2019
Temperature: 9.0°C (48°F)
Dewpoint: 7.0°C (45°F) [RH = 87%]
Pressure (altimeter): 30.38 inches Hg (1029.0 mb)
Winds: from the W (280 degrees) at 8 MPH (7 knots; 3.6 m/s)
Visibility: 6 or more miles (10+ km)
Ceiling: 4500 feet AGL
Clouds: few clouds at 1900 feet AGL
broken clouds at 4500 feet AGL
Weather: no significant weather observed at this time

METAR text: EPWA 220130Z 28009KT 250V310 9999 BKN046 09/07 Q1029 NOSIG
Conditions at: EPWA (WARSAW/OKECIE , PL) observed 0130 UTC 22 March 2019
Temperature: 9.0°C (48°F)
Dewpoint: 7.0°C (45°F) [RH = 87%]
Pressure (altimeter): 30.38 inches Hg (1029.0 mb)
Winds: from the W (280 degrees) at 10 MPH (9 knots; 4.6 m/s)
Visibility: 6 or more miles (10+ km)
Ceiling: 4600 feet AGL
Clouds: broken clouds at 4600 feet AGL
Weather: no significant weather observed at this time

METAR text: EPWA 220100Z 27007KT 9999 FEW028 BKN048 09/07 Q1029 NOSIG
Conditions at: EPWA (WARSAW/OKECIE , PL) observed 0100 UTC 22 March 2019
Temperature: 9.0°C (48°F)
Dewpoint: 7.0°C (45°F) [RH = 87%]
Pressure (altimeter): 30.38 inches Hg (1029.0 mb)
Winds: from the W (270 degrees) at 8 MPH (7 knots; 3.6 m/s)
Visibility: 6 or more miles (10+ km)
Ceiling: 4800 feet AGL
Clouds: few clouds at 2800 feet AGL
broken clouds at 4800 feet AGL
Weather: no significant weather observed at this time

METAR text: EPWA 220030Z 27007KT 9999 FEW016 BKN047 09/07 Q1029 NOSIG
Conditions at: EPWA (WARSAW/OKECIE , PL) observed 0030 UTC 22 March 2019
Temperature: 9.0°C (48°F)
Dewpoint: 7.0°C (45°F) [RH = 87%]
Pressure (altimeter): 30.38 inches Hg (1029.0 mb)
Winds: from the W (270 degrees) at 8 MPH (7 knots; 3.6 m/s)
Visibility: 6 or more miles (10+ km)
Ceiling: 4700 feet AGL
Clouds: few clouds at 1600 feet AGL
broken clouds at 4700 feet AGL
Weather: no significant weather observed at this time

METAR text: EPWA 212330Z 27007KT 240V300 9999 BKN033 10/07 Q1029 NOSIG
Conditions at: EPWA (WARSAW/OKECIE , PL) observed 2330 UTC 21 March 2019
Temperature: 10.0°C (50°F)
Dewpoint: 7.0°C (45°F) [RH = 82%]
Pressure (altimeter): 30.38 inches Hg (1029.0 mb)
Winds: from the W (270 degrees) at 8 MPH (7 knots; 3.6 m/s)
Visibility: 6 or more miles (10+ km)
Ceiling: 3300 feet AGL
Clouds: broken clouds at 3300 feet AGL
Weather: no significant weather observed at this time

METAR text: EPWA 212300Z 27007KT 240V310 9999 SCT033 BKN045 10/07 Q1029 NOSIG
Conditions at: EPWA (WARSAW/OKECIE , PL) observed 2300 UTC 21 March 2019
Temperature: 10.0°C (50°F)
Dewpoint: 7.0°C (45°F) [RH = 82%]
Pressure (altimeter): 30.38 inches Hg (1029.0 mb)
Winds: from the W (270 degrees) at 8 MPH (7 knots; 3.6 m/s)
Visibility: 6 or more miles (10+ km)
Ceiling: 4500 feet AGL
Clouds: scattered clouds at 3300 feet AGL
broken clouds at 4500 feet AGL
Weather: no significant weather observed at this time

METAR text: EPWA 212230Z 27007KT 240V300 9999 FEW034 BKN048 10/07 Q1029 NOSIG
Conditions at: EPWA (WARSAW/OKECIE , PL) observed 2230 UTC 21 March 2019
Temperature: 10.0°C (50°F)
Dewpoint: 7.0°C (45°F) [RH = 82%]
Pressure (altimeter): 30.38 inches Hg (1029.0 mb)
Winds: from the W (270 degrees) at 8 MPH (7 knots; 3.6 m/s)
Visibility: 6 or more miles (10+ km)
Ceiling: 4800 feet AGL
Clouds: few clouds at 3400 feet AGL
broken clouds at 4800 feet AGL
Weather: no significant weather observed at this time

METAR text: EPWA 212200Z 28007KT 240V300 9999 FEW038 BKN048 10/07 Q1029 NOSIG
Conditions at: EPWA (WARSAW/OKECIE , PL) observed 2200 UTC 21 March 2019
Temperature: 10.0°C (50°F)
Dewpoint: 7.0°C (45°F) [RH = 82%]
Pressure (altimeter): 30.38 inches Hg (1029.0 mb)
Winds: from the W (280 degrees) at 8 MPH (7 knots; 3.6 m/s)
Visibility: 6 or more miles (10+ km)
Ceiling: 4800 feet AGL
Clouds: few clouds at 3800 feet AGL
broken clouds at 4800 feet AGL
Weather: no significant weather observed at this time

METAR text: EPWA 212130Z 28008KT 250V310 9999 BKN048 10/07 Q1029 NOSIG
Conditions at: EPWA (WARSAW/OKECIE , PL) observed 2130 UTC 21 March 2019
Temperature: 10.0°C (50°F)
Dewpoint: 7.0°C (45°F) [RH = 82%]
Pressure (altimeter): 30.38 inches Hg (1029.0 mb)
Winds: from the W (280 degrees) at 9 MPH (8 knots; 4.1 m/s)
Visibility: 6 or more miles (10+ km)
Ceiling: 4800 feet AGL
Clouds: broken clouds at 4800 feet AGL
Weather: no significant weather observed at this time

METAR text: EPWA 212100Z 27008KT 240V300 CAVOK 11/07 Q1029 NOSIG
Conditions at: EPWA (WARSAW/OKECIE , PL) observed 2100 UTC 21 March 2019
Temperature: 11.0°C (52°F)
Dewpoint: 7.0°C (45°F) [RH = 76%]
Pressure (altimeter): 30.38 inches Hg (1029.0 mb)
Winds: from the W (270 degrees) at 9 MPH (8 knots; 4.1 m/s)
Visibility: 6 or more miles (10+ km)
Ceiling: ceiling and visibility are OK
Clouds: unknown
Weather: no significant weather observed at this time

METAR text: EPWA 212030Z 27008KT CAVOK 10/06 Q1029 NOSIG
Conditions at: EPWA (WARSAW/OKECIE , PL) observed 2030 UTC 21 March 2019
Temperature: 10.0°C (50°F)
Dewpoint: 6.0°C (43°F) [RH = 76%]
Pressure (altimeter): 30.38 inches Hg (1029.0 mb)
Winds: from the W (270 degrees) at 9 MPH (8 knots; 4.1 m/s)
Visibility: 6 or more miles (10+ km)
Ceiling: ceiling and visibility are OK
Clouds: unknown
Weather: no significant weather observed at this time

METAR text: EPWA 212000Z 27007KT 240V300 CAVOK 10/06 Q1029 NOSIG
Conditions at: EPWA (WARSAW/OKECIE , PL) observed 2000 UTC 21 March 2019
Temperature: 10.0°C (50°F)
Dewpoint: 6.0°C (43°F) [RH = 76%]
Pressure (altimeter): 30.38 inches Hg (1029.0 mb)
Winds: from the W (270 degrees) at 8 MPH (7 knots; 3.6 m/s)
Visibility: 6 or more miles (10+ km)
Ceiling: ceiling and visibility are OK
Clouds: unknown
Weather: no significant weather observed at this time

METAR text: EPWA 211930Z 27008KT 9999 SCT040 11/06 Q1029 NOSIG
Conditions at: EPWA (WARSAW/OKECIE , PL) observed 1930 UTC 21 March 2019
Temperature: 11.0°C (52°F)
Dewpoint: 6.0°C (43°F) [RH = 71%]
Pressure (altimeter): 30.38 inches Hg (1029.0 mb)
Winds: from the W (270 degrees) at 9 MPH (8 knots; 4.1 m/s)
Visibility: 6 or more miles (10+ km)
Ceiling: at least 12,000 feet AGL
Clouds: scattered clouds at 4000 feet AGL
Weather: no significant weather observed at this time

METAR text: EPWA 211900Z 27007KT 230V300 9999 BKN042 11/06 Q1029 NOSIG
Conditions at: EPWA (WARSAW/OKECIE , PL) observed 1900 UTC 21 March 2019
Temperature: 11.0°C (52°F)
Dewpoint: 6.0°C (43°F) [RH = 71%]
Pressure (altimeter): 30.38 inches Hg (1029.0 mb)
Winds: from the W (270 degrees) at 8 MPH (7 knots; 3.6 m/s)
Visibility: 6 or more miles (10+ km)
Ceiling: 4200 feet AGL
Clouds: broken clouds at 4200 feet AGL
Weather: no significant weather observed at this time

METAR text: EPWA 211830Z 27005KT 240V300 9999 BKN043 11/05 Q1029 NOSIG
Conditions at: EPWA (WARSAW/OKECIE , PL) observed 1830 UTC 21 March 2019
Temperature: 11.0°C (52°F)
Dewpoint: 5.0°C (41°F) [RH = 66%]
Pressure (altimeter): 30.38 inches Hg (1029.0 mb)
Winds: from the W (270 degrees) at 6 MPH (5 knots; 2.6 m/s)
Visibility: 6 or more miles (10+ km)
Ceiling: 4300 feet AGL
Clouds: broken clouds at 4300 feet AGL
Weather: no significant weather observed at this time

METAR text: EPWA 211800Z 26004KT 9999 BKN042 11/05 Q1029 NOSIG
Conditions at: EPWA (WARSAW/OKECIE , PL) observed 1800 UTC 21 March 2019
Temperature: 11.0°C (52°F)
Dewpoint: 5.0°C (41°F) [RH = 66%]
Pressure (altimeter): 30.38 inches Hg (1029.0 mb)
Winds: from the W (260 degrees) at 5 MPH (4 knots; 2.1 m/s)
Visibility: 6 or more miles (10+ km)
Ceiling: 4200 feet AGL
Clouds: broken clouds at 4200 feet AGL
Weather: no significant weather observed at this time

METAR text: EPWA 211730Z 27004KT 240V300 9999 BKN046 11/05 Q1029 NOSIG
Conditions at: EPWA (WARSAW/OKECIE , PL) observed 1730 UTC 21 March 2019
Temperature: 11.0°C (52°F)
Dewpoint: 5.0°C (41°F) [RH = 66%]
Pressure (altimeter): 30.38 inches Hg (1029.0 mb)
Winds: from the W (270 degrees) at 5 MPH (4 knots; 2.1 m/s)
Visibility: 6 or more miles (10+ km)
Ceiling: 4600 feet AGL
Clouds: broken clouds at 4600 feet AGL
Weather: no significant weather observed at this time

METAR text: EPWA 211700Z 26006KT 9999 BKN046 11/05 Q1029 NOSIG
Conditions at: EPWA (WARSAW/OKECIE , PL) observed 1700 UTC 21 March 2019
Temperature: 11.0°C (52°F)
Dewpoint: 5.0°C (41°F) [RH = 66%]
Pressure (altimeter): 30.38 inches Hg (1029.0 mb)
Winds: from the W (260 degrees) at 7 MPH (6 knots; 3.1 m/s)
Visibility: 6 or more miles (10+ km)
Ceiling: 4600 feet AGL
Clouds: broken clouds at 4600 feet AGL
Weather: no significant weather observed at this time

METAR text: EPWA 211630Z 26005KT 230V300 CAVOK 11/05 Q1029 NOSIG
Conditions at: EPWA (WARSAW/OKECIE , PL) observed 1630 UTC 21 March 2019
Temperature: 11.0°C (52°F)
Dewpoint: 5.0°C (41°F) [RH = 66%]
Pressure (altimeter): 30.38 inches Hg (1029.0 mb)
Winds: from the W (260 degrees) at 6 MPH (5 knots; 2.6 m/s)
Visibility: 6 or more miles (10+ km)
Ceiling: ceiling and visibility are OK
Clouds: unknown
Weather: no significant weather observed at this time

METAR text: EPWA 211600Z 27006KT 230V310 9999 BKN046 12/04 Q1029 NOSIG
Conditions at: EPWA (WARSAW/OKECIE , PL) observed 1600 UTC 21 March 2019
Temperature: 12.0°C (54°F)
Dewpoint: 4.0°C (39°F) [RH = 58%]
Pressure (altimeter): 30.38 inches Hg (1029.0 mb)
Winds: from the W (270 degrees) at 7 MPH (6 knots; 3.1 m/s)
Visibility: 6 or more miles (10+ km)
Ceiling: 4600 feet AGL
Clouds: broken clouds at 4600 feet AGL
Weather: no significant weather observed at this time

METAR text: EPWA 211530Z 29006KT 260V320 9999 BKN046 12/03 Q1029 NOSIG
Conditions at: EPWA (WARSAW/OKECIE , PL) observed 1530 UTC 21 March 2019
Temperature: 12.0°C (54°F)
Dewpoint: 3.0°C (37°F) [RH = 54%]
Pressure (altimeter): 30.38 inches Hg (1029.0 mb)
Winds: from the WNW (290 degrees) at 7 MPH (6 knots; 3.1 m/s)
Visibility: 6 or more miles (10+ km)
Ceiling: 4600 feet AGL
Clouds: broken clouds at 4600 feet AGL
Weather: no significant weather observed at this time

METAR text: EPWA 211500Z 29007KT 260V330 9999 SCT042 12/03 Q1030 NOSIG
Conditions at: EPWA (WARSAW/OKECIE , PL) observed 1500 UTC 21 March 2019
Temperature: 12.0°C (54°F)
Dewpoint: 3.0°C (37°F) [RH = 54%]
Pressure (altimeter): 30.41 inches Hg (1030.0 mb)
Winds: from the WNW (290 degrees) at 8 MPH (7 knots; 3.6 m/s)
Visibility: 6 or more miles (10+ km)
Ceiling: at least 12,000 feet AGL
Clouds: scattered clouds at 4200 feet AGL
Weather: no significant weather observed at this time

METAR text: EPWA 211430Z 28009KT 240V300 9999 SCT040 13/03 Q1029 NOSIG
Conditions at: EPWA (WARSAW/OKECIE , PL) observed 1430 UTC 21 March 2019
Temperature: 13.0°C (55°F)
Dewpoint: 3.0°C (37°F) [RH = 51%]
Pressure (altimeter): 30.38 inches Hg (1029.0 mb)
Winds: from the W (280 degrees) at 10 MPH (9 knots; 4.6 m/s)
Visibility: 6 or more miles (10+ km)
Ceiling: at least 12,000 feet AGL
Clouds: scattered clouds at 4000 feet AGL
Weather: no significant weather observed at this time

METAR text: EPWA 211400Z 30009KT 260V330 9999 BKN040 13/04 Q1030 NOSIG
Conditions at: EPWA (WARSAW/OKECIE , PL) observed 1400 UTC 21 March 2019
Temperature: 13.0°C (55°F)
Dewpoint: 4.0°C (39°F) [RH = 54%]
Pressure (altimeter): 30.41 inches Hg (1030.0 mb)
Winds: from the WNW (300 degrees) at 10 MPH (9 knots; 4.6 m/s)
Visibility: 6 or more miles (10+ km)
Ceiling: 4000 feet AGL
Clouds: broken clouds at 4000 feet AGL
Weather: no significant weather observed at this time

METAR text: EPWA 211330Z 29011KT 250V320 9999 FEW036 SCT043 12/03 Q1030 NOSIG
Conditions at: EPWA (WARSAW/OKECIE , PL) observed 1330 UTC 21 March 2019
Temperature: 12.0°C (54°F)
Dewpoint: 3.0°C (37°F) [RH = 54%]
Pressure (altimeter): 30.41 inches Hg (1030.0 mb)
Winds: from the WNW (290 degrees) at 13 MPH (11 knots; 5.7 m/s)
Visibility: 6 or more miles (10+ km)
Ceiling: at least 12,000 feet AGL
Clouds: few clouds at 3600 feet AGL
scattered clouds at 4300 feet AGL
Weather: no significant weather observed at this time

METAR text: EPWA 211300Z 29009KT 260V320 9999 FEW033 SCT043 13/04 Q1030 NOSIG
Conditions at: EPWA (WARSAW/OKECIE , PL) observed 1300 UTC 21 March 2019
Temperature: 13.0°C (55°F)
Dewpoint: 4.0°C (39°F) [RH = 54%]
Pressure (altimeter): 30.41 inches Hg (1030.0 mb)
Winds: from the WNW (290 degrees) at 10 MPH (9 knots; 4.6 m/s)
Visibility: 6 or more miles (10+ km)
Ceiling: at least 12,000 feet AGL
Clouds: few clouds at 3300 feet AGL
scattered clouds at 4300 feet AGL
Weather: no significant weather observed at this time

METAR text: EPWA 211230Z 28010KT 260V320 9999 FEW030 BKN040 12/04 Q1030 NOSIG
Conditions at: EPWA (WARSAW/OKECIE , PL) observed 1230 UTC 21 March 2019
Temperature: 12.0°C (54°F)
Dewpoint: 4.0°C (39°F) [RH = 58%]
Pressure (altimeter): 30.41 inches Hg (1030.0 mb)
Winds: from the W (280 degrees) at 12 MPH (10 knots; 5.1 m/s)
Visibility: 6 or more miles (10+ km)
Ceiling: 4000 feet AGL
Clouds: few clouds at 3000 feet AGL
broken clouds at 4000 feet AGL
Weather: no significant weather observed at this time

METAR text: EPWA 211200Z 29010KT 9999 FEW031 BKN044 12/05 Q1030 NOSIG
Conditions at: EPWA (WARSAW/OKECIE , PL) observed 1200 UTC 21 March 2019
Temperature: 12.0°C (54°F)
Dewpoint: 5.0°C (41°F) [RH = 62%]
Pressure (altimeter): 30.41 inches Hg (1030.0 mb)
Winds: from the WNW (290 degrees) at 12 MPH (10 knots; 5.1 m/s)
Visibility: 6 or more miles (10+ km)
Ceiling: 4400 feet AGL
Clouds: few clouds at 3100 feet AGL
broken clouds at 4400 feet AGL
Weather: no significant weather observed at this time

METAR text: EPWA 211130Z 28009KT 9999 FEW029 BKN043 13/04 Q1031 NOSIG
Conditions at: EPWA (WARSAW/OKECIE , PL) observed 1130 UTC 21 March 2019
Temperature: 13.0°C (55°F)
Dewpoint: 4.0°C (39°F) [RH = 54%]
Pressure (altimeter): 30.44 inches Hg (1031.0 mb)
Winds: from the W (280 degrees) at 10 MPH (9 knots; 4.6 m/s)
Visibility: 6 or more miles (10+ km)
Ceiling: 4300 feet AGL
Clouds: few clouds at 2900 feet AGL
broken clouds at 4300 feet AGL
Weather: no significant weather observed at this time

METAR text: EPWA 211100Z 28009KT 250V320 9999 SCT026 BKN043 12/04 Q1031 NOSIG
Conditions at: EPWA (WARSAW/OKECIE , PL) observed 1100 UTC 21 March 2019
Temperature: 12.0°C (54°F)
Dewpoint: 4.0°C (39°F) [RH = 58%]
Pressure (altimeter): 30.44 inches Hg (1031.0 mb)
Winds: from the W (280 degrees) at 10 MPH (9 knots; 4.6 m/s)
Visibility: 6 or more miles (10+ km)
Ceiling: 4300 feet AGL
Clouds: scattered clouds at 2600 feet AGL
broken clouds at 4300 feet AGL
Weather: no significant weather observed at this time

METAR text: EPWA 211030Z 28009KT 250V310 9999 SCT026 BKN042 10/05 Q1031 NOSIG
Conditions at: EPWA (WARSAW/OKECIE , PL) observed 1030 UTC 21 March 2019
Temperature: 10.0°C (50°F)
Dewpoint: 5.0°C (41°F) [RH = 71%]
Pressure (altimeter): 30.44 inches Hg (1031.0 mb)
Winds: from the W (280 degrees) at 10 MPH (9 knots; 4.6 m/s)
Visibility: 6 or more miles (10+ km)
Ceiling: 4200 feet AGL
Clouds: scattered clouds at 2600 feet AGL
broken clouds at 4200 feet AGL
Weather: no significant weather observed at this time

METAR text: EPWA 211000Z 29009KT 260V320 9999 SCT026 BKN041 10/04 Q1031 NOSIG
Conditions at: EPWA (WARSAW/OKECIE , PL) observed 1000 UTC 21 March 2019
Temperature: 10.0°C (50°F)
Dewpoint: 4.0°C (39°F) [RH = 66%]
Pressure (altimeter): 30.44 inches Hg (1031.0 mb)
Winds: from the WNW (290 degrees) at 10 MPH (9 knots; 4.6 m/s)
Visibility: 6 or more miles (10+ km)
Ceiling: 4100 feet AGL
Clouds: scattered clouds at 2600 feet AGL
broken clouds at 4100 feet AGL
Weather: no significant weather observed at this time

METAR text: EPWA 210930Z 29008KT 250V320 9999 BKN021 11/05 Q1031 NOSIG
Conditions at: EPWA (WARSAW/OKECIE , PL) observed 0930 UTC 21 March 2019
Temperature: 11.0°C (52°F)
Dewpoint: 5.0°C (41°F) [RH = 66%]
Pressure (altimeter): 30.44 inches Hg (1031.0 mb)
Winds: from the WNW (290 degrees) at 9 MPH (8 knots; 4.1 m/s)
Visibility: 6 or more miles (10+ km)
Ceiling: 2100 feet AGL
Clouds: broken clouds at 2100 feet AGL
Weather: no significant weather observed at this time

METAR text: EPWA 210900Z 29008KT 260V320 9999 FEW019 BKN043 10/05 Q1031 NOSIG
Conditions at: EPWA (WARSAW/OKECIE , PL) observed 0900 UTC 21 March 2019
Temperature: 10.0°C (50°F)
Dewpoint: 5.0°C (41°F) [RH = 71%]
Pressure (altimeter): 30.44 inches Hg (1031.0 mb)
Winds: from the WNW (290 degrees) at 9 MPH (8 knots; 4.1 m/s)
Visibility: 6 or more miles (10+ km)
Ceiling: 4300 feet AGL
Clouds: few clouds at 1900 feet AGL
broken clouds at 4300 feet AGL
Weather: no significant weather observed at this time

METAR text: EPWA 210830Z 29010KT 260V330 9999 FEW018 BKN044 09/05 Q1031 NOSIG
Conditions at: EPWA (WARSAW/OKECIE , PL) observed 0830 UTC 21 March 2019
Temperature: 9.0°C (48°F)
Dewpoint: 5.0°C (41°F) [RH = 76%]
Pressure (altimeter): 30.44 inches Hg (1031.0 mb)
Winds: from the WNW (290 degrees) at 12 MPH (10 knots; 5.1 m/s)
Visibility: 6 or more miles (10+ km)
Ceiling: 4400 feet AGL
Clouds: few clouds at 1800 feet AGL
broken clouds at 4400 feet AGL
Weather: no significant weather observed at this time

METAR text: EPWA 210800Z 28009KT 240V310 9999 BKN044 09/04 Q1031 NOSIG
Conditions at: EPWA (WARSAW/OKECIE , PL) observed 0800 UTC 21 March 2019
Temperature: 9.0°C (48°F)
Dewpoint: 4.0°C (39°F) [RH = 71%]
Pressure (altimeter): 30.44 inches Hg (1031.0 mb)
Winds: from the W (280 degrees) at 10 MPH (9 knots; 4.6 m/s)
Visibility: 6 or more miles (10+ km)
Ceiling: 4400 feet AGL
Clouds: broken clouds at 4400 feet AGL
Weather: no significant weather observed at this time

METAR text: EPWA 210730Z 28008KT 9999 BKN043 08/04 Q1031 NOSIG
Conditions at: EPWA (WARSAW/OKECIE , PL) observed 0730 UTC 21 March 2019
Temperature: 8.0°C (46°F)
Dewpoint: 4.0°C (39°F) [RH = 76%]
Pressure (altimeter): 30.44 inches Hg (1031.0 mb)
Winds: from the W (280 degrees) at 9 MPH (8 knots; 4.1 m/s)
Visibility: 6 or more miles (10+ km)
Ceiling: 4300 feet AGL
Clouds: broken clouds at 4300 feet AGL
Weather: no significant weather observed at this time

METAR text: EPWA 210700Z 28007KT 250V310 9999 BKN043 08/03 Q1031 NOSIG
Conditions at: EPWA (WARSAW/OKECIE , PL) observed 0700 UTC 21 March 2019
Temperature: 8.0°C (46°F)
Dewpoint: 3.0°C (37°F) [RH = 71%]
Pressure (altimeter): 30.44 inches Hg (1031.0 mb)
Winds: from the W (280 degrees) at 8 MPH (7 knots; 3.6 m/s)
Visibility: 6 or more miles (10+ km)
Ceiling: 4300 feet AGL
Clouds: broken clouds at 4300 feet AGL
Weather: no significant weather observed at this time

METAR text: EPWA 210630Z 27006KT 240V310 9999 BKN043 07/03 Q1030 NOSIG
Conditions at: EPWA (WARSAW/OKECIE , PL) observed 0630 UTC 21 March 2019
Temperature: 7.0°C (45°F)
Dewpoint: 3.0°C (37°F) [RH = 76%]
Pressure (altimeter): 30.41 inches Hg (1030.0 mb)
Winds: from the W (270 degrees) at 7 MPH (6 knots; 3.1 m/s)
Visibility: 6 or more miles (10+ km)
Ceiling: 4300 feet AGL
Clouds: broken clouds at 4300 feet AGL
Weather: no significant weather observed at this time

METAR text: EPWA 210600Z 27005KT 9999 BKN042 07/02 Q1030 NOSIG
Conditions at: EPWA (WARSAW/OKECIE , PL) observed 0600 UTC 21 March 2019
Temperature: 7.0°C (45°F)
Dewpoint: 2.0°C (36°F) [RH = 70%]
Pressure (altimeter): 30.41 inches Hg (1030.0 mb)
Winds: from the W (270 degrees) at 6 MPH (5 knots; 2.6 m/s)
Visibility: 6 or more miles (10+ km)
Ceiling: 4200 feet AGL
Clouds: broken clouds at 4200 feet AGL
Weather: no significant weather observed at this time

METAR text: EPWA 210530Z 27006KT 9999 FEW020 BKN042 07/02 Q1030 TEMPO BKN014
Conditions at: EPWA (WARSAW/OKECIE , PL) observed 0530 UTC 21 March 2019
Temperature: 7.0°C (45°F)
Dewpoint: 2.0°C (36°F) [RH = 70%]
Pressure (altimeter): 30.41 inches Hg (1030.0 mb)
Winds: from the W (270 degrees) at 7 MPH (6 knots; 3.1 m/s)
Visibility: 6 or more miles (10+ km)
Ceiling: 4200 feet AGL
Clouds: few clouds at 2000 feet AGL
broken clouds at 4200 feet AGL
Weather: no significant weather observed at this time

METAR text: EPWA 210500Z 27006KT 230V300 9999 FEW022 BKN040 07/02 Q1030 TEMPO BKN014
Conditions at: EPWA (WARSAW/OKECIE , PL) observed 0500 UTC 21 March 2019
Temperature: 7.0°C (45°F)
Dewpoint: 2.0°C (36°F) [RH = 70%]
Pressure (altimeter): 30.41 inches Hg (1030.0 mb)
Winds: from the W (270 degrees) at 7 MPH (6 knots; 3.1 m/s)
Visibility: 6 or more miles (10+ km)
Ceiling: 4000 feet AGL
Clouds: few clouds at 2200 feet AGL
broken clouds at 4000 feet AGL
Weather: no significant weather observed at this time

METAR text: EPWA 210430Z 27006KT 240V300 9999 FEW033 BKN038 07/01 Q1030 TEMPO BKN014
Conditions at: EPWA (WARSAW/OKECIE , PL) observed 0430 UTC 21 March 2019
Temperature: 7.0°C (45°F)
Dewpoint: 1.0°C (34°F) [RH = 66%]
Pressure (altimeter): 30.41 inches Hg (1030.0 mb)
Winds: from the W (270 degrees) at 7 MPH (6 knots; 3.1 m/s)
Visibility: 6 or more miles (10+ km)
Ceiling: 3800 feet AGL
Clouds: few clouds at 3300 feet AGL
broken clouds at 3800 feet AGL
Weather: no significant weather observed at this time

METAR text: EPWA 210400Z 28007KT 9999 BKN036 07/01 Q1030 NOSIG
Conditions at: EPWA (WARSAW/OKECIE , PL) observed 0400 UTC 21 March 2019
Temperature: 7.0°C (45°F)
Dewpoint: 1.0°C (34°F) [RH = 66%]
Pressure (altimeter): 30.41 inches Hg (1030.0 mb)
Winds: from the W (280 degrees) at 8 MPH (7 knots; 3.6 m/s)
Visibility: 6 or more miles (10+ km)
Ceiling: 3600 feet AGL
Clouds: broken clouds at 3600 feet AGL
Weather: no significant weather observed at this time

METAR text: EPWA 210330Z 28006KT 240V310 9999 FEW025 BKN044 07/01 Q1030 NOSIG
Conditions at: EPWA (WARSAW/OKECIE , PL) observed 0330 UTC 21 March 2019
Temperature: 7.0°C (45°F)
Dewpoint: 1.0°C (34°F) [RH = 66%]
Pressure (altimeter): 30.41 inches Hg (1030.0 mb)
Winds: from the W (280 degrees) at 7 MPH (6 knots; 3.1 m/s)
Visibility: 6 or more miles (10+ km)
Ceiling: 4400 feet AGL
Clouds: few clouds at 2500 feet AGL
broken clouds at 4400 feet AGL
Weather: no significant weather observed at this time

METAR text: EPWA 210300Z 28008KT 9999 FEW026 BKN044 07/01 Q1029 BECMG BKN014
Conditions at: EPWA (WARSAW/OKECIE , PL) observed 0300 UTC 21 March 2019
Temperature: 7.0°C (45°F)
Dewpoint: 1.0°C (34°F) [RH = 66%]
Pressure (altimeter): 30.38 inches Hg (1029.0 mb)
Winds: from the W (280 degrees) at 9 MPH (8 knots; 4.1 m/s)
Visibility: 6 or more miles (10+ km)
Ceiling: 4400 feet AGL
Clouds: few clouds at 2600 feet AGL
broken clouds at 4400 feet AGL
Weather: no significant weather observed at this time

METAR text: EPWA 210230Z 27008KT 240V310 9999 BKN042 08/01 Q1029 BECMG BKN014
Conditions at: EPWA (WARSAW/OKECIE , PL) observed 0230 UTC 21 March 2019
Temperature: 8.0°C (46°F)
Dewpoint: 1.0°C (34°F) [RH = 61%]
Pressure (altimeter): 30.38 inches Hg (1029.0 mb)
Winds: from the W (270 degrees) at 9 MPH (8 knots; 4.1 m/s)
Visibility: 6 or more miles (10+ km)
Ceiling: 4200 feet AGL
Clouds: broken clouds at 4200 feet AGL
Weather: no significant weather observed at this time

METAR text: EPWA 210200Z 27009KT 250V310 9999 BKN036 08/M00 Q1030 NOSIG
Conditions at: EPWA (WARSAW/OKECIE , PL) observed 0200 UTC 21 March 2019
Temperature: 8.0°C (46°F)
Dewpoint: 0.0°C (32°F) [RH = 57%]
Pressure (altimeter): 30.41 inches Hg (1030.0 mb)
Winds: from the W (270 degrees) at 10 MPH (9 knots; 4.6 m/s)
Visibility: 6 or more miles (10+ km)
Ceiling: 3600 feet AGL
Clouds: broken clouds at 3600 feet AGL
Weather: no significant weather observed at this time

METAR text: EPWA 210130Z 27008KT 230V300 9999 BKN034 08/M00 Q1029 NOSIG
Conditions at: EPWA (WARSAW/OKECIE , PL) observed 0130 UTC 21 March 2019
Temperature: 8.0°C (46°F)
Dewpoint: 0.0°C (32°F) [RH = 57%]
Pressure (altimeter): 30.38 inches Hg (1029.0 mb)
Winds: from the W (270 degrees) at 9 MPH (8 knots; 4.1 m/s)
Visibility: 6 or more miles (10+ km)
Ceiling: 3400 feet AGL
Clouds: broken clouds at 3400 feet AGL
Weather: no significant weather observed at this time

METAR text: EPWA 210100Z 27008KT 240V300 9999 BKN036 08/M01 Q1030 NOSIG
Conditions at: EPWA (WARSAW/OKECIE , PL) observed 0100 UTC 21 March 2019
Temperature: 8.0°C (46°F)
Dewpoint: -1.0°C (30°F) [RH = 53%]
Pressure (altimeter): 30.41 inches Hg (1030.0 mb)
Winds: from the W (270 degrees) at 9 MPH (8 knots; 4.1 m/s)
Visibility: 6 or more miles (10+ km)
Ceiling: 3600 feet AGL
Clouds: broken clouds at 3600 feet AGL
Weather: no significant weather observed at this time

Forecast for: EPWA (WARSAW/OKECIE , PL)
Text: TAF EPWA 221130Z 2212/2312 34014KT 9999 BKN035
Forecast period: 1200 to 1800 UTC 22 March 2019
Forecast type: FROM: standard forecast or significant change
Winds: from the NNW (340 degrees) at 16 MPH (14 knots; 7.2 m/s)
Visibility: 6 or more miles 10+ km)
Ceiling: 3500 feet AGL
Clouds: broken clouds at 3500 feet AGL
Weather: no significant weather forecast for this period
Text: BECMG 2218/2220 VRB02KT
Forecast period: 1800 UTC 22 March 2019 to 0600 UTC 23 March 2019
Forecast type: BECOMING: Conditions expected to become as follows by 2000 UTC 22 March 2019
Winds: variable direction winds at 2 MPH (2 knots; 1.0 m/s)
Visibility: 6 or more miles 10+ km)
Ceiling: 3500 feet AGL
Clouds: broken clouds at 3500 feet AGL
Weather: no significant weather forecast for this period
Text: PROB40 2303/2306 3000 BR
Forecast period: 0300 to 0600 UTC 23 March 2019
Forecast type: PROBABLE: 40 percent likelihood of the following during this time
Visibility: 1.86 miles (2.99 km)
Ceiling: unknown
Clouds: missing
Weather: BR  (mist)
Text: BECMG 2306/2309 18012KT
Forecast period: 0600 to 1200 UTC 23 March 2019
Forecast type: BECOMING: Conditions expected to become as follows by 0900 UTC 23 March 2019
Winds: from the S (180 degrees) at 14 MPH (12 knots; 6.2 m/s)
Visibility: 6 or more miles 10+ km)
Ceiling: 3500 feet AGL
Clouds: broken clouds at 3500 feet AGL
Weather: no significant weather forecast for this period